Time;durP1;ratioP1;P1;durP2;ratioP2;P2;SDS_P1;SDS_P2;PMS_P1;PMS_P2;Temp;Humidity;BMP_temperature;BMP_pressure;BME280_temperature;BME280_humidity;BME280_pressure;Samples;Min_cycle;Max_cycle;Signal;HPM_P1;HPM_P2
2022/04/30 00:01:19;;;;;;;9.10;7.00;;;13.40;67.60;;;;;;5039328;28;20906;-80
2022/04/30 00:03:47;;;;;;;8.80;7.23;;;13.40;67.60;;;;;;5030157;28;20297;-80
2022/04/30 00:06:14;;;;;;;12.47;6.77;;;13.30;67.70;;;;;;5013757;28;20223;-80
2022/04/30 00:08:42;;;;;;;9.60;7.23;;;13.30;67.90;;;;;;5027345;28;20215;-80
2022/04/30 00:11:09;;;;;;;7.80;6.37;;;13.30;67.90;;;;;;5029603;28;20258;-80
2022/04/30 00:13:38;;;;;;;8.03;6.60;;;13.30;68.00;;;;;;5038526;28;20225;-80
2022/04/30 00:16:05;;;;;;;9.23;6.90;;;13.30;67.90;;;;;;5033842;28;20203;-80
2022/04/30 00:18:32;;;;;;;10.60;6.57;;;13.30;67.80;;;;;;5039776;28;20290;-80
2022/04/30 00:20:59;;;;;;;8.03;6.77;;;13.20;67.60;;;;;;5026179;28;20259;-81
2022/04/30 00:23:27;;;;;;;9.23;6.53;;;13.20;67.80;;;;;;5040640;28;20640;-80
2022/04/30 00:25:55;;;;;;;10.17;7.00;;;13.20;67.60;;;;;;5039761;28;20275;-81
2022/04/30 00:28:26;;;;;;;9.17;6.93;;;13.20;67.40;;;;;;5026059;28;20242;-80
2022/04/30 00:30:54;;;;;;;9.33;7.03;;;13.20;67.20;;;;;;5041582;28;20214;-80
2022/04/30 00:33:23;;;;;;;11.43;6.93;;;13.20;67.40;;;;;;5040942;28;20285;-80
2022/04/30 00:35:50;;;;;;;10.70;6.77;;;13.10;68.10;;;;;;5037427;28;20706;-80
2022/04/30 00:38:17;;;;;;;8.40;6.17;;;13.10;67.30;;;;;;5035095;28;20243;-80
2022/04/30 00:40:44;;;;;;;10.80;6.57;;;13.10;67.10;;;;;;5041951;28;20199;-80
2022/04/30 00:43:12;;;;;;;7.83;7.03;;;13.10;67.30;;;;;;5035279;28;20208;-80
2022/04/30 00:45:48;;;;;;;9.67;6.33;;;13.00;67.10;;;;;;5029500;28;20315;-80
2022/04/30 00:48:16;;;;;;;8.00;6.47;;;13.00;66.90;;;;;;5032272;28;20256;-80
2022/04/30 00:50:43;;;;;;;11.97;5.80;;;13.00;66.80;;;;;;5010862;28;20202;-80
2022/04/30 00:53:13;;;;;;;8.63;6.10;;;13.00;66.40;;;;;;5016499;28;20664;-80
2022/04/30 00:55:43;;;;;;;8.07;5.17;;;12.90;66.50;;;;;;5044184;28;20237;-80
2022/04/30 00:58:14;;;;;;;9.43;5.90;;;12.90;66.80;;;;;;5037445;28;20235;-80
2022/04/30 01:00:44;;;;;;;6.37;5.77;;;12.90;67.30;;;;;;5027286;28;20219;-80
2022/04/30 01:03:22;;;;;;;7.40;5.20;;;12.80;67.60;;;;;;5022062;28;20653;-80
2022/04/30 01:06:06;;;;;;;6.37;5.60;;;12.80;67.50;;;;;;5050766;28;20213;-80
2022/04/30 01:08:33;;;;;;;5.77;5.13;;;12.80;66.80;;;;;;5049772;28;20288;-80
2022/04/30 01:11:06;;;;;;;5.93;5.17;;;12.70;67.00;;;;;;5013209;28;20217;-80
2022/04/30 01:13:35;;;;;;;5.23;4.73;;;12.70;67.00;;;;;;5025146;28;20204;-80
2022/04/30 01:16:04;;;;;;;6.93;5.23;;;12.60;67.10;;;;;;5029040;28;20201;-80
2022/04/30 01:18:36;;;;;;;7.50;5.80;;;12.50;67.80;;;;;;5049197;28;20286;-80
2022/04/30 01:21:11;;;;;;;9.73;5.90;;;12.40;67.60;;;;;;5046270;28;20205;-81
2022/04/30 01:23:44;;;;;;;6.67;5.40;;;12.40;67.90;;;;;;5016973;28;20519;-80
2022/04/30 01:26:13;;;;;;;6.43;5.03;;;12.40;68.10;;;;;;5037665;28;20304;-81
2022/04/30 01:28:43;;;;;;;6.40;5.60;;;12.30;68.20;;;;;;5035077;28;20224;-80
2022/04/30 01:39:39;;;;;;;8.70;6.13;;;12.00;69.00;;;;;;5047026;28;20199;-80
2022/04/30 01:42:11;;;;;;;9.83;6.17;;;12.00;69.60;;;;;;5032996;28;20593;-80
2022/04/30 01:44:46;;;;;;;6.67;6.00;;;11.90;70.20;;;;;;5024788;28;20210;-80
2022/04/30 01:47:15;;;;;;;8.50;6.17;;;11.90;70.90;;;;;;5033159;28;20203;-80
2022/04/30 01:49:43;;;;;;;9.37;5.87;;;11.90;71.50;;;;;;5039885;28;20220;-80
2022/04/30 01:52:13;;;;;;;9.97;7.00;;;11.80;71.70;;;;;;5060634;28;20211;-80
2022/04/30 01:54:41;;;;;;;6.93;6.23;;;11.80;71.90;;;;;;5034714;28;20210;-80
2022/04/30 01:57:10;;;;;;;8.87;6.27;;;11.80;72.10;;;;;;5023811;28;20230;-80
2022/04/30 01:59:38;;;;;;;8.20;6.07;;;11.80;72.20;;;;;;5036128;28;20206;-80
2022/04/30 02:02:06;;;;;;;10.50;5.43;;;11.80;72.40;;;;;;5027409;28;20301;-81
2022/04/30 02:04:35;;;;;;;6.20;5.60;;;11.70;72.50;;;;;;5038872;28;20653;-80
2022/04/30 02:07:03;;;;;;;7.67;5.47;;;11.70;72.60;;;;;;5029548;28;20205;-80
2022/04/30 02:09:32;;;;;;;7.87;5.97;;;11.70;72.60;;;;;;5048640;28;20234;-80
2022/04/30 02:12:01;;;;;;;9.07;6.30;;;11.70;72.60;;;;;;5050588;28;20234;-80
2022/04/30 02:14:32;;;;;;;10.00;5.90;;;11.60;72.40;;;;;;5033157;28;20243;-80
2022/04/30 02:17:01;;;;;;;6.90;5.40;;;11.60;72.50;;;;;;5009902;28;20202;-80
2022/04/30 02:20:18;;;;;;;6.53;4.97;;;11.60;72.50;;;;;;5043904;28;20202;-80
2022/04/30 02:22:21;;;;;;;7.90;5.50;;;11.60;72.30;;;;;;5042420;28;20248;-80
2022/04/30 02:24:49;;;;;;;8.13;5.50;;;11.50;72.30;;;;;;5026639;28;20186;-80
2022/04/30 02:27:17;;;;;;;6.57;5.90;;;11.50;72.50;;;;;;5027413;28;20201;-80
2022/04/30 02:29:45;;;;;;;5.93;5.07;;;11.60;72.50;;;;;;5035630;28;20309;-80
2022/04/30 02:32:13;;;;;;;5.93;5.10;;;11.50;72.20;;;;;;5064714;28;20191;-80
2022/04/30 02:34:40;;;;;;;8.30;5.17;;;11.60;72.10;;;;;;5064091;28;20567;-80
2022/04/30 02:37:13;;;;;;;5.67;4.97;;;11.60;71.90;;;;;;5033335;28;20348;-80
2022/04/30 02:39:45;;;;;;;8.83;5.20;;;11.60;72.40;;;;;;5026515;28;20188;-80
2022/04/30 02:42:13;;;;;;;11.23;6.23;;;11.60;71.90;;;;;;5026017;28;20206;-80
2022/04/30 02:44:41;;;;;;;7.33;6.33;;;11.60;71.70;;;;;;5025786;28;20251;-80
2022/04/30 02:47:08;;;;;;;8.27;5.57;;;11.60;71.40;;;;;;5025404;28;20207;-80
2022/04/30 02:49:38;;;;;;;6.87;5.30;;;11.60;71.30;;;;;;5008702;28;20255;-80
2022/04/30 02:52:06;;;;;;;5.90;5.30;;;11.60;71.40;;;;;;5024888;28;20183;-80
2022/04/30 02:54:34;;;;;;;10.87;5.77;;;11.60;71.50;;;;;;5024847;28;20196;-80
2022/04/30 02:57:01;;;;;;;6.20;5.60;;;11.50;71.30;;;;;;5024599;28;20665;-80
2022/04/30 03:02:25;;;;;;;8.17;5.13;;;11.50;72.10;;;;;;5025447;28;20206;-80
2022/04/30 03:04:53;;;;;;;7.40;5.83;;;11.50;72.50;;;;;;5025676;28;20270;-80
2022/04/30 03:07:22;;;;;;;6.23;5.63;;;11.40;72.40;;;;;;5025487;28;20716;-80
2022/04/30 03:09:50;;;;;;;7.67;6.03;;;11.40;72.50;;;;;;5025248;28;20242;-80
2022/04/30 03:12:17;;;;;;;6.53;5.80;;;11.40;72.60;;;;;;5025144;28;20187;-80
2022/04/30 03:14:44;;;;;;;8.03;6.40;;;11.40;72.50;;;;;;5042492;28;20289;-80
2022/04/30 03:22:44;;;;;;;7.00;6.00;;;11.30;71.50;;;;;;5053523;28;20214;-80
2022/04/30 03:25:11;;;;;;;7.87;6.17;;;11.30;71.30;;;;;;5045503;28;20564;-80
2022/04/30 03:27:38;;;;;;;6.87;6.13;;;11.30;71.10;;;;;;5043432;28;20195;-80
2022/04/30 03:30:06;;;;;;;7.23;6.50;;;11.30;70.90;;;;;;5042702;28;20219;-80
2022/04/30 03:32:33;;;;;;;6.93;6.13;;;11.30;70.70;;;;;;5042592;28;20201;-80
2022/04/30 03:35:02;;;;;;;9.53;6.27;;;11.30;70.50;;;;;;5026152;28;20275;-80
2022/04/30 03:37:29;;;;;;;7.37;6.10;;;11.30;70.30;;;;;;5042509;28;20538;-80
2022/04/30 03:39:57;;;;;;;6.77;6.07;;;11.30;70.30;;;;;;5027248;28;20595;-80
2022/04/30 03:42:24;;;;;;;12.80;6.10;;;11.30;70.50;;;;;;5061240;28;20230;-80
2022/04/30 03:44:53;;;;;;;6.83;6.10;;;11.20;70.80;;;;;;5043437;28;20564;-80
2022/04/30 03:47:20;;;;;;;8.03;6.40;;;11.20;71.10;;;;;;5060001;28;20211;-80
2022/04/30 03:49:48;;;;;;;6.77;6.17;;;11.20;71.20;;;;;;5042953;28;20223;-80
2022/04/30 03:52:15;;;;;;;15.67;8.33;;;11.20;71.40;;;;;;5042783;28;20271;-80
2022/04/30 03:54:42;;;;;;;8.77;6.83;;;11.20;71.90;;;;;;5042205;28;20773;-80
2022/04/30 03:57:10;;;;;;;8.00;6.47;;;11.10;72.40;;;;;;5059458;28;20184;-80
2022/04/30 03:59:38;;;;;;;17.33;7.13;;;11.10;72.60;;;;;;5041631;28;20200;-80
2022/04/30 04:02:06;;;;;;;8.30;7.17;;;11.10;72.70;;;;;;5060837;28;20264;-80
2022/04/30 04:04:34;;;;;;;11.70;7.50;;;11.10;73.50;;;;;;5025804;28;20213;-80
2022/04/30 04:07:01;;;;;;;9.90;6.67;;;11.00;72.90;;;;;;5039158;28;20288;-80
2022/04/30 04:09:28;;;;;;;11.90;6.83;;;11.00;73.00;;;;;;5060465;28;20649;-80
2022/04/30 04:11:55;;;;;;;10.80;7.70;;;11.00;72.80;;;;;;5026716;28;20193;-80
2022/04/30 04:19:55;;;;;;;16.13;8.03;;;10.90;72.20;;;;;;5043197;28;20232;-80
2022/04/30 04:22:22;;;;;;;10.50;8.00;;;10.90;73.10;;;;;;5036957;28;20212;-80
2022/04/30 04:27:35;;;;;;;12.07;8.03;;;10.90;73.90;;;;;;5042983;28;20190;-80
2022/04/30 04:30:03;;;;;;;12.17;8.10;;;10.90;73.90;;;;;;5025292;28;20304;-80
2022/04/30 04:32:31;;;;;;;12.13;7.83;;;11.00;74.00;;;;;;5043168;28;20215;-80
2022/04/30 04:34:58;;;;;;;12.50;8.63;;;11.00;74.40;;;;;;5025822;28;20205;-80
2022/04/30 04:37:25;;;;;;;9.70;8.13;;;11.00;74.50;;;;;;5027221;28;20621;-80
2022/04/30 04:39:54;;;;;;;9.37;8.03;;;11.00;74.30;;;;;;5026116;28;20267;-80
2022/04/30 04:42:21;;;;;;;12.23;7.87;;;11.10;73.90;;;;;;5025672;28;20193;-80
2022/04/30 04:44:49;;;;;;;9.53;8.47;;;11.10;73.50;;;;;;5025895;28;20503;-80
2022/04/30 04:47:16;;;;;;;12.67;9.00;;;11.10;74.10;;;;;;5025989;28;20221;-81
2022/04/30 04:49:43;;;;;;;11.23;8.60;;;11.10;74.50;;;;;;5043168;28;20245;-81
2022/04/30 04:52:11;;;;;;;10.67;8.00;;;11.20;74.80;;;;;;5037854;28;20211;-80
2022/04/30 04:54:39;;;;;;;12.27;9.40;;;11.30;74.80;;;;;;5045220;28;20203;-80
2022/04/30 04:57:06;;;;;;;9.63;8.63;;;11.30;74.70;;;;;;5044965;28;20266;-80
2022/04/30 04:59:34;;;;;;;10.63;8.53;;;11.40;74.70;;;;;;5044631;28;20215;-80
2022/04/30 05:02:03;;;;;;;9.87;8.83;;;11.50;74.50;;;;;;5044638;28;20242;-81
2022/04/30 05:04:32;;;;;;;10.07;8.57;;;11.60;74.20;;;;;;5044218;28;20209;-81
2022/04/30 05:07:00;;;;;;;9.83;8.83;;;11.60;73.90;;;;;;5028883;28;20219;-80
2022/04/30 05:09:28;;;;;;;10.53;8.40;;;11.70;73.90;;;;;;5045699;28;20673;-80
2022/04/30 05:11:55;;;;;;;10.67;8.93;;;11.80;73.90;;;;;;5028847;28;20541;-80
2022/04/30 05:14:22;;;;;;;9.83;8.83;;;11.90;73.70;;;;;;5025291;28;20577;-80
2022/04/30 05:16:50;;;;;;;11.73;8.63;;;12.00;73.50;;;;;;5042573;28;20202;-80
2022/04/30 05:19:17;;;;;;;10.87;9.30;;;12.10;73.20;;;;;;5025372;28;20219;-81
2022/04/30 05:21:44;;;;;;;16.13;9.47;;;12.20;73.40;;;;;;5042531;28;20222;-81
2022/04/30 05:24:12;;;;;;;10.90;9.80;;;12.50;72.20;;;;;;5041809;28;20684;-80
2022/04/30 05:26:39;;;;;;;11.00;9.27;;;12.80;71.50;;;;;;5008932;28;20204;-81
2022/04/30 05:29:06;;;;;;;12.33;8.63;;;13.10;70.80;;;;;;5026137;28;20611;-80
2022/04/30 05:31:34;;;;;;;13.47;9.33;;;13.30;70.10;;;;;;5048233;28;20207;-81
2022/04/30 05:34:02;;;;;;;10.60;9.03;;;13.50;69.60;;;;;;5045559;28;20204;-80
2022/04/30 05:36:29;;;;;;;15.73;9.10;;;13.70;68.90;;;;;;5045454;28;20220;-81
2022/04/30 05:38:56;;;;;;;10.50;9.00;;;13.70;68.00;;;;;;5060842;28;20258;-80
2022/04/30 05:41:25;;;;;;;15.53;9.43;;;13.80;67.40;;;;;;5044863;28;20206;-80
2022/04/30 05:43:53;;;;;;;12.40;9.17;;;13.80;67.20;;;;;;5043773;28;20194;-81
2022/04/30 05:46:20;;;;;;;10.70;9.60;;;13.90;67.30;;;;;;5043458;28;20209;-81
2022/04/30 05:48:48;;;;;;;12.07;9.57;;;14.00;67.70;;;;;;5027496;28;20229;-80
2022/04/30 05:51:16;;;;;;;15.53;9.27;;;14.10;67.90;;;;;;5061083;28;20192;-80
2022/04/30 05:53:43;;;;;;;13.67;9.57;;;14.20;67.50;;;;;;5027534;28;20263;-80
2022/04/30 05:56:10;;;;;;;10.00;9.00;;;14.40;67.20;;;;;;5042814;28;20294;-80
2022/04/30 05:58:38;;;;;;;9.03;8.13;;;14.50;66.70;;;;;;5044072;28;20201;-80
2022/04/30 06:01:05;;;;;;;10.20;8.60;;;14.60;65.90;;;;;;5061747;28;20194;-80
2022/04/30 06:03:33;;;;;;;9.23;7.33;;;14.70;65.40;;;;;;5043809;28;20202;-80
2022/04/30 06:06:01;;;;;;;12.73;8.33;;;14.80;65.10;;;;;;5043402;28;20201;-80
2022/04/30 06:08:28;;;;;;;12.47;8.30;;;14.90;64.70;;;;;;5043869;28;20196;-80
2022/04/30 06:10:56;;;;;;;10.20;7.93;;;15.00;64.10;;;;;;5026249;28;20579;-80
2022/04/30 06:13:24;;;;;;;8.83;7.60;;;15.10;63.80;;;;;;5043331;28;20206;-80
2022/04/30 06:15:52;;;;;;;13.37;9.70;;;15.30;63.60;;;;;;5061460;28;20226;-80
2022/04/30 06:18:20;;;;;;;10.60;8.17;;;15.40;63.10;;;;;;5027262;28;20201;-80
2022/04/30 06:20:47;;;;;;;10.73;8.87;;;15.50;62.40;;;;;;5043116;28;20194;-80
2022/04/30 06:23:15;;;;;;;12.03;8.93;;;15.60;62.50;;;;;;5060499;28;20211;-80
2022/04/30 06:25:44;;;;;;;9.53;8.17;;;15.70;62.30;;;;;;5044178;28;20205;-81
2022/04/30 06:28:14;;;;;;;9.60;7.93;;;15.90;62.20;;;;;;5043074;28;20566;-80
2022/04/30 06:30:43;;;;;;;10.87;8.23;;;16.00;61.90;;;;;;5025840;28;20309;-80
2022/04/30 06:33:10;;;;;;;10.13;7.50;;;16.10;60.40;;;;;;5043232;28;20275;-80
2022/04/30 06:35:37;;;;;;;9.33;8.07;;;16.20;60.30;;;;;;5060837;28;20209;-80
2022/04/30 06:38:06;;;;;;;11.00;7.93;;;16.40;60.20;;;;;;5060529;28;20202;-80
2022/04/30 06:40:34;;;;;;;8.13;7.33;;;16.50;60.30;;;;;;5060198;28;20275;-80
2022/04/30 06:43:02;;;;;;;9.37;7.60;;;16.60;59.60;;;;;;5059722;28;20210;-81
2022/04/30 06:45:32;;;;;;;8.50;7.60;;;16.70;58.20;;;;;;5044199;28;20231;-81
2022/04/30 06:47:59;;;;;;;11.40;7.97;;;16.80;59.10;;;;;;5044330;28;20663;-80
2022/04/30 06:50:27;;;;;;;8.50;7.67;;;16.90;59.10;;;;;;5042766;28;20215;-81
2022/04/30 06:58:40;;;;;;;10.73;8.77;;;17.40;58.60;;;;;;5043185;28;20545;-80
2022/04/30 07:04:04;;;;;;;18.23;9.20;;;17.80;58.40;;;;;;5043784;28;20235;-80
2022/04/30 07:06:35;;;;;;;9.40;8.23;;;18.00;56.80;;;;;;5044131;28;20230;-81
2022/04/30 07:09:06;;;;;;;13.60;9.67;;;18.10;55.50;;;;;;5026094;28;20309;-80
2022/04/30 07:11:34;;;;;;;12.03;9.60;;;18.20;56.00;;;;;;5025585;28;20203;-80
2022/04/30 07:14:02;;;;;;;12.57;9.63;;;18.40;55.90;;;;;;5025499;28;20254;-80
2022/04/30 07:16:29;;;;;;;10.23;9.10;;;18.60;55.30;;;;;;5009283;28;20294;-80
2022/04/30 07:18:57;;;;;;;11.97;10.57;;;18.80;55.20;;;;;;5009591;28;20210;-80
2022/04/30 07:21:24;;;;;;;12.07;10.87;;;19.00;55.60;;;;;;5026633;28;20185;-79
2022/04/30 07:23:51;;;;;;;14.07;10.40;;;19.20;55.10;;;;;;5044684;28;20287;-80
2022/04/30 07:26:19;;;;;;;10.60;9.50;;;19.40;54.20;;;;;;5059886;28;20203;-80
2022/04/30 07:28:46;;;;;;;12.63;9.67;;;19.60;53.50;;;;;;5046231;28;20247;-79
2022/04/30 07:31:14;;;;;;;10.20;9.20;;;19.80;53.30;;;;;;5062565;28;20197;-80
2022/04/30 07:33:42;;;;;;;11.73;9.70;;;19.90;53.40;;;;;;5061505;28;20663;-80
2022/04/30 07:36:09;;;;;;;13.00;10.40;;;20.10;52.30;;;;;;5061695;28;20255;-80
2022/04/30 07:38:37;;;;;;;14.23;10.57;;;20.20;52.30;;;;;;5043689;28;20266;-80
2022/04/30 07:41:05;;;;;;;12.30;10.50;;;20.30;50.90;;;;;;5038331;28;20245;-80
2022/04/30 07:43:32;;;;;;;12.70;10.27;;;20.30;50.90;;;;;;5045207;28;20246;-80
2022/04/30 07:45:59;;;;;;;12.60;10.47;;;20.40;51.20;;;;;;5042873;28;20220;-80
2022/04/30 07:48:27;;;;;;;13.13;10.73;;;20.50;52.00;;;;;;5044174;28;20284;-80
2022/04/30 07:50:57;;;;;;;12.47;10.13;;;20.60;52.00;;;;;;5027544;28;20233;-80
2022/04/30 07:53:25;;;;;;;13.03;10.73;;;20.70;51.70;;;;;;5044791;28;20640;-80
2022/04/30 07:55:54;;;;;;;12.17;10.30;;;20.90;51.20;;;;;;5024106;28;20238;-80
2022/04/30 07:58:22;;;;;;;14.97;11.73;;;21.00;50.80;;;;;;5022364;28;20217;-80
2022/04/30 08:00:49;;;;;;;13.17;11.73;;;21.10;49.50;;;;;;5040135;28;20213;-80
2022/04/30 08:03:16;;;;;;;12.53;10.63;;;21.10;50.20;;;;;;5037236;28;20270;-81
2022/04/30 08:05:44;;;;;;;16.23;11.20;;;21.30;51.10;;;;;;5024303;28;20537;-80
2022/04/30 08:08:11;;;;;;;14.53;11.70;;;21.40;51.20;;;;;;5037946;28;20715;-80
2022/04/30 08:10:38;;;;;;;16.53;11.63;;;21.50;49.90;;;;;;5021199;28;20227;-81
2022/04/30 08:13:06;;;;;;;16.53;11.57;;;21.60;50.90;;;;;;5021187;28;20203;-81
2022/04/30 08:15:34;;;;;;;16.00;12.23;;;21.60;48.90;;;;;;5021371;28;20221;-81
2022/04/30 08:18:02;;;;;;;17.40;12.40;;;21.70;48.70;;;;;;5021422;28;20199;-81
2022/04/30 08:20:30;;;;;;;14.00;11.87;;;21.60;47.40;;;;;;5004151;28;20208;-81
2022/04/30 08:23:02;;;;;;;16.60;12.30;;;21.60;48.80;;;;;;5021209;28;20291;-81
2022/04/30 08:25:29;;;;;;;14.37;12.87;;;21.50;50.20;;;;;;5022349;28;20290;-81
2022/04/30 08:27:57;;;;;;;16.90;14.13;;;21.50;51.60;;;;;;5022480;28;20275;-81
2022/04/30 08:30:24;;;;;;;15.27;13.27;;;21.50;51.00;;;;;;5021700;28;20210;-81
2022/04/30 08:32:52;;;;;;;20.40;12.80;;;21.50;51.00;;;;;;5019892;28;20199;-81
2022/04/30 08:35:19;;;;;;;18.63;13.57;;;21.50;51.10;;;;;;5021180;28;20203;-81
2022/04/30 08:38:06;;;;;;;16.43;11.97;;;21.50;49.20;;;;;;5020603;28;20191;-81
2022/04/30 08:40:37;;;;;;;15.93;12.50;;;21.50;49.90;;;;;;5036588;28;20258;-81
2022/04/30 08:43:09;;;;;;;14.13;10.83;;;21.60;50.20;;;;;;5036092;28;20204;-81
2022/04/30 08:45:39;;;;;;;12.93;10.40;;;21.70;49.50;;;;;;5019235;28;20261;-81
2022/04/30 08:48:08;;;;;;;12.67;11.37;;;21.80;49.90;;;;;;5019231;28;20207;-82
2022/04/30 08:50:36;;;;;;;13.57;10.87;;;21.80;49.10;;;;;;5019382;28;20243;-81
2022/04/30 08:53:04;;;;;;;11.73;10.50;;;21.90;47.80;;;;;;5020209;28;20188;-81
2022/04/30 08:55:32;;;;;;;15.50;12.07;;;22.00;48.50;;;;;;5019517;28;20243;-82
2022/04/30 08:57:59;;;;;;;13.27;10.70;;;22.10;47.30;;;;;;5004856;28;20291;-80
2022/04/30 09:00:27;;;;;;;12.30;10.33;;;22.10;44.60;;;;;;5006677;28;20200;-80
2022/04/30 09:02:57;;;;;;;13.53;11.50;;;22.10;45.80;;;;;;5038654;28;20214;-82
2022/04/30 09:05:34;;;;;;;10.27;9.17;;;22.10;45.40;;;;;;5021745;28;20215;-82
2022/04/30 09:08:02;;;;;;;12.63;10.40;;;22.20;47.30;;;;;;5022392;28;20242;-81
2022/04/30 09:10:33;;;;;;;12.10;10.70;;;22.30;47.80;;;;;;5022910;28;20252;-81
2022/04/30 09:13:04;;;;;;;11.60;9.80;;;22.50;48.00;;;;;;5020035;28;20207;-81
2022/04/30 09:15:32;;;;;;;12.07;10.53;;;22.70;48.50;;;;;;5020487;28;20212;-81
2022/04/30 09:18:00;;;;;;;12.53;10.47;;;23.00;48.40;;;;;;5022227;28;20199;-80
2022/04/30 09:20:30;;;;;;;21.23;9.70;;;23.20;48.50;;;;;;5021814;28;20254;-81
2022/04/30 09:22:58;;;;;;;14.67;11.07;;;23.50;47.50;;;;;;5020056;28;20211;-81
2022/04/30 09:25:26;;;;;;;12.57;9.90;;;23.50;44.40;;;;;;5035180;28;20218;-81
2022/04/30 09:28:03;;;;;;;12.17;9.10;;;23.50;44.60;;;;;;5033841;28;20208;-82
2022/04/30 09:30:32;;;;;;;16.63;8.73;;;23.40;44.40;;;;;;5034525;28;20245;-82
2022/04/30 09:33:06;;;;;;;9.50;8.27;;;23.40;44.30;;;;;;5043750;28;20230;-81
2022/04/30 09:38:25;;;;;;;12.57;8.20;;;23.70;44.70;;;;;;5021683;28;20215;-81
2022/04/30 09:40:55;;;;;;;13.13;8.90;;;23.90;43.60;;;;;;5003917;28;20215;-81
2022/04/30 09:43:32;;;;;;;10.93;8.23;;;24.00;42.70;;;;;;5027163;28;20215;-80
2022/04/30 09:46:06;;;;;;;12.67;9.10;;;24.10;43.20;;;;;;5037933;28;20211;-79
2022/04/30 09:54:07;;;;;;;11.97;7.47;;;24.40;43.80;;;;;;5040142;28;20207;-80
2022/04/30 09:56:37;;;;;;;20.50;6.63;;;24.50;41.80;;;;;;5059037;28;20689;-79
2022/04/30 09:59:15;;;;;;;7.53;5.60;;;24.60;43.00;;;;;;5042294;28;20203;-80
2022/04/30 10:01:44;;;;;;;9.87;5.90;;;24.70;43.50;;;;;;5041710;28;20218;-79
2022/04/30 10:04:14;;;;;;;6.17;5.57;;;24.80;42.90;;;;;;5010930;28;20207;-79
2022/04/30 10:06:46;;;;;;;6.27;5.60;;;25.00;43.40;;;;;;5057439;28;20206;-80
2022/04/30 10:09:20;;;;;;;7.87;5.67;;;25.00;40.30;;;;;;5045013;28;20188;-80
2022/04/30 10:12:14;;;;;;;5.37;4.70;;;25.00;40.80;;;;;;5046194;28;20232;-81
2022/04/30 10:14:58;;;;;;;9.63;3.90;;;24.90;37.70;;;;;;5045293;28;20550;-78
2022/04/30 10:17:26;;;;;;;6.17;5.30;;;24.80;37.80;;;;;;5026930;28;20214;-78
2022/04/30 10:20:12;;;;;;;13.67;4.60;;;24.90;37.70;;;;;;5032638;28;20214;-78
2022/04/30 10:22:57;;;;;;;7.30;4.40;;;24.80;38.60;;;;;;5041443;28;20214;-81
2022/04/30 10:25:41;;;;;;;8.53;5.00;;;24.90;38.60;;;;;;5030890;28;20540;-80
2022/04/30 10:28:22;;;;;;;6.93;4.07;;;24.90;34.80;;;;;;5035845;28;20253;-81
2022/04/30 10:31:10;;;;;;;6.20;5.43;;;24.90;37.20;;;;;;5057188;28;20215;-80
2022/04/30 10:33:49;;;;;;;7.97;4.73;;;24.90;37.70;;;;;;5037366;28;20273;-81
2022/04/30 10:36:18;;;;;;;11.00;4.40;;;24.90;35.70;;;;;;5026845;28;20262;-81
2022/04/30 10:39:04;;;;;;;10.23;4.33;;;24.90;36.80;;;;;;5044495;28;20226;-80
2022/04/30 10:41:42;;;;;;;5.90;4.33;;;25.00;37.60;;;;;;5037294;28;20297;-80
2022/04/30 10:44:12;;;;;;;6.23;4.63;;;25.00;39.10;;;;;;5045816;28;20657;-81
2022/04/30 10:46:45;;;;;;;9.90;4.77;;;25.20;39.90;;;;;;5043878;28;20232;-80
2022/04/30 10:49:12;;;;;;;10.43;4.83;;;25.30;39.00;;;;;;5020841;28;20234;-80
2022/04/30 10:51:45;;;;;;;7.00;5.30;;;25.40;39.70;;;;;;5058524;28;20234;-81
2022/04/30 10:54:18;;;;;;;5.03;4.53;;;25.60;38.70;;;;;;5036952;28;20278;-81
2022/04/30 10:57:05;;;;;;;5.50;5.00;;;25.70;36.90;;;;;;5024654;28;20243;-80
2022/04/30 10:59:35;;;;;;;7.73;6.03;;;25.70;36.60;;;;;;5029690;28;20583;-81
2022/04/30 11:02:03;;;;;;;6.67;5.30;;;25.60;36.40;;;;;;5023464;28;20215;-81
2022/04/30 11:04:30;;;;;;;9.60;4.87;;;25.50;36.00;;;;;;5015460;28;20298;-83
2022/04/30 11:07:00;;;;;;;5.87;4.80;;;25.40;38.20;;;;;;5039153;28;20212;-80
2022/04/30 11:09:28;;;;;;;4.93;4.43;;;25.40;38.10;;;;;;5035324;28;20222;-82
2022/04/30 11:11:57;;;;;;;9.03;4.47;;;25.40;38.10;;;;;;5018968;28;20299;-79
2022/04/30 11:14:25;;;;;;;5.43;4.93;;;25.40;39.40;;;;;;5011790;28;20201;-80
2022/04/30 11:16:54;;;;;;;5.20;4.60;;;25.50;40.00;;;;;;5020668;28;20219;-80
2022/04/30 11:19:23;;;;;;;7.67;4.73;;;25.60;40.70;;;;;;5018964;28;20241;-80
2022/04/30 11:21:55;;;;;;;6.70;4.77;;;25.70;41.30;;;;;;5018895;28;20231;-81
2022/04/30 11:24:30;;;;;;;6.03;4.60;;;25.90;39.90;;;;;;5035237;28;20220;-81
2022/04/30 11:26:59;;;;;;;5.13;4.63;;;26.00;38.30;;;;;;5034448;28;20216;-79
2022/04/30 11:29:28;;;;;;;4.80;4.40;;;26.00;39.80;;;;;;5039766;28;20226;-80
2022/04/30 11:31:57;;;;;;;6.10;4.53;;;26.10;39.30;;;;;;5042764;28;20234;-81
2022/04/30 11:34:25;;;;;;;5.27;4.77;;;26.20;40.40;;;;;;5033821;28;20235;-80
2022/04/30 11:36:56;;;;;;;5.93;5.33;;;26.20;40.20;;;;;;5043357;28;20231;-80
2022/04/30 11:39:25;;;;;;;12.07;5.27;;;26.30;39.30;;;;;;5036342;28;20213;-81
2022/04/30 11:41:55;;;;;;;8.77;4.80;;;26.30;40.40;;;;;;5045255;28;20215;-80
2022/04/30 11:44:25;;;;;;;5.80;4.80;;;26.30;40.00;;;;;;5033641;28;20212;-80
2022/04/30 11:46:53;;;;;;;5.67;4.60;;;26.30;40.40;;;;;;5028175;28;20218;-80
2022/04/30 11:49:26;;;;;;;4.93;4.53;;;26.40;40.10;;;;;;5047710;28;20206;-79
2022/04/30 11:52:11;;;;;;;6.17;4.93;;;26.50;40.80;;;;;;5035548;28;20211;-80
2022/04/30 11:54:40;;;;;;;6.77;4.30;;;26.60;38.70;;;;;;5037066;28;20280;-82
2022/04/30 11:57:09;;;;;;;7.60;4.00;;;26.60;38.70;;;;;;5038042;28;20213;-80
2022/04/30 11:59:40;;;;;;;5.10;4.67;;;26.60;39.30;;;;;;5057976;28;20225;-80
2022/04/30 12:02:15;;;;;;;5.87;4.23;;;26.60;39.10;;;;;;5038706;28;20222;-81
2022/04/30 12:04:43;;;;;;;5.40;4.07;;;26.60;36.50;;;;;;5053758;28;20195;-81
2022/04/30 12:07:13;;;;;;;6.63;3.90;;;26.60;37.40;;;;;;5022648;28;20202;-80
2022/04/30 12:09:55;;;;;;;6.70;4.43;;;26.70;37.40;;;;;;5036206;28;20227;-81
2022/04/30 12:12:23;;;;;;;5.53;4.20;;;26.80;35.00;;;;;;5028569;28;20230;-82
2022/04/30 12:14:52;;;;;;;4.03;3.40;;;26.70;35.40;;;;;;5042608;28;20262;-80
2022/04/30 12:17:33;;;;;;;6.23;3.97;;;26.70;37.60;;;;;;5055157;28;20205;-80
2022/04/30 12:26:05;;;;;;;7.17;4.57;;;27.00;38.40;;;;;;5042791;28;20240;-80
2022/04/30 12:28:50;;;;;;;5.23;3.90;;;26.80;36.90;;;;;;5056579;28;20267;-81
2022/04/30 12:31:19;;;;;;;5.00;4.17;;;26.80;39.50;;;;;;5024226;28;20342;-83
2022/04/30 12:33:49;;;;;;;4.90;3.90;;;26.80;39.30;;;;;;5058333;28;20204;-80
2022/04/30 12:36:18;;;;;;;4.37;2.60;;;26.70;36.20;;;;;;5041309;28;20198;-81
2022/04/30 12:38:56;;;;;;;4.03;2.77;;;26.60;36.10;;;;;;5050773;28;20218;-80
2022/04/30 12:41:24;;;;;;;3.90;3.50;;;26.50;36.20;;;;;;5035137;28;20227;-82
2022/04/30 12:43:52;;;;;;;8.67;3.23;;;26.30;36.60;;;;;;5028862;28;20263;-82
2022/04/30 12:46:22;;;;;;;3.30;3.07;;;26.10;35.10;;;;;;5032679;28;20241;-81
2022/04/30 12:48:55;;;;;;;4.80;2.77;;;25.80;34.20;;;;;;5044112;28;20288;-80
2022/04/30 12:51:22;;;;;;;3.43;2.47;;;25.60;36.20;;;;;;5034687;28;20235;-82
2022/04/30 12:53:50;;;;;;;2.73;2.53;;;25.50;36.90;;;;;;5043702;28;20393;-81
2022/04/30 12:56:27;;;;;;;3.97;3.47;;;25.50;36.40;;;;;;5040732;28;20232;-82
2022/04/30 12:58:55;;;;;;;3.17;2.60;;;25.50;35.80;;;;;;5040422;28;20211;-82
2022/04/30 13:01:23;;;;;;;3.37;3.00;;;25.40;36.20;;;;;;5059925;28;20226;-81
2022/04/30 13:03:53;;;;;;;5.07;3.50;;;25.50;37.00;;;;;;5046602;28;20212;-79
2022/04/30 13:06:21;;;;;;;3.87;3.47;;;25.60;38.40;;;;;;5041120;28;20216;-81
2022/04/30 13:14:22;;;;;;;4.03;2.83;;;25.90;40.80;;;;;;5037811;28;20217;-82
2022/04/30 13:16:50;;;;;;;3.90;3.30;;;26.10;41.50;;;;;;5046278;28;20281;-79
2022/04/30 13:19:19;;;;;;;3.30;2.60;;;26.20;40.90;;;;;;5039255;28;20196;-79
2022/04/30 13:21:55;;;;;;;2.83;2.63;;;26.30;39.50;;;;;;5021567;28;20225;-79
2022/04/30 13:24:22;;;;;;;5.13;3.10;;;26.30;38.10;;;;;;5068357;28;20208;-80
2022/04/30 13:26:49;;;;;;;3.53;3.17;;;26.30;37.30;;;;;;5063394;28;20194;-82
2022/04/30 13:29:18;;;;;;;5.93;3.13;;;26.30;38.00;;;;;;5049802;28;20217;-81
2022/04/30 13:31:47;;;;;;;3.13;2.77;;;26.30;37.00;;;;;;5028485;28;20325;-81
2022/04/30 13:34:15;;;;;;;3.63;2.33;;;26.20;36.60;;;;;;5055719;28;20205;-80
2022/04/30 13:36:42;;;;;;;4.93;3.20;;;26.20;37.40;;;;;;5037606;28;20208;-81
2022/04/30 13:39:13;;;;;;;2.67;2.30;;;26.20;38.20;;;;;;5052579;28;20205;-80
2022/04/30 13:41:45;;;;;;;5.03;2.70;;;26.30;35.80;;;;;;5029106;28;20244;-81
2022/04/30 13:44:12;;;;;;;2.60;2.40;;;26.20;37.50;;;;;;5034898;28;20204;-82
2022/04/30 13:46:39;;;;;;;3.80;2.20;;;26.10;35.60;;;;;;5035890;28;20437;-83